Time;durP1;ratioP1;P1;durP2;ratioP2;P2;SDS_P1;SDS_P2;PMS_P1;PMS_P2;Temp;Humidity;BMP_temperature;BMP_pressure;BME280_temperature;BME280_humidity;BME280_pressure;Samples;Min_cycle;Max_cycle;Signal;HPM_P1;HPM_P2
2022/07/17 00:01:23;;;;;;;;;;;21.60;44.20;;;;;;5110114;27;19967;-60
2022/07/17 00:03:50;;;;;;;;;;;21.60;44.20;;;;;;5080264;28;19936;-60
2022/07/17 00:06:16;;;;;;;;;;;21.60;44.20;;;;;;5097775;27;19920;-60
2022/07/17 00:08:43;;;;;;;;;;;21.60;44.20;;;;;;5066187;28;19978;-59
2022/07/17 00:11:11;;;;;;;;;;;21.50;44.10;;;;;;5101286;28;19924;-60
2022/07/17 00:13:38;;;;;;;;;;;21.60;44.30;;;;;;5092016;27;20451;-59
2022/07/17 00:16:05;;;;;;;;;;;21.60;44.20;;;;;;5083038;28;19928;-59
2022/07/17 00:18:32;;;;;;;;;;;21.60;44.30;;;;;;5067319;28;19925;-59
2022/07/17 00:20:58;;;;;;;;;;;21.60;44.30;;;;;;5053026;28;19931;-59
2022/07/17 00:23:25;;;;;;;;;;;21.60;44.20;;;;;;5065783;28;19921;-60
2022/07/17 00:25:52;;;;;;;;;;;21.60;44.30;;;;;;5074240;28;19940;-60
2022/07/17 00:28:20;;;;;;;;;;;21.50;44.20;;;;;;5073380;28;19927;-59
2022/07/17 00:30:47;;;;;;;;;;;21.50;44.10;;;;;;5075761;28;19930;-60
2022/07/17 00:33:14;;;;;;;;;;;21.50;44.20;;;;;;5059398;28;19935;-59
2022/07/17 00:35:40;;;;;;;;;;;21.50;44.20;;;;;;5056243;28;19928;-60
2022/07/17 00:38:07;;;;;;;;;;;21.50;44.20;;;;;;5051761;28;19921;-59
2022/07/17 00:40:34;;;;;;;;;;;21.50;44.20;;;;;;5085428;28;20321;-59
2022/07/17 00:43:00;;;;;;;;;;;21.60;44.20;;;;;;5076794;28;19921;-59
2022/07/17 00:45:28;;;;;;;;;;;21.50;44.20;;;;;;5069002;28;20392;-59
2022/07/17 00:47:56;;;;;;;;;;;21.50;44.20;;;;;;5081771;28;19979;-60
2022/07/17 00:50:23;;;;;;;;;;;21.50;44.20;;;;;;5070162;28;19974;-59
2022/07/17 00:52:50;;;;;;;;;;;21.50;44.20;;;;;;5082726;28;19934;-59
2022/07/17 00:55:17;;;;;;;;;;;21.50;44.10;;;;;;5072256;28;20011;-58
2022/07/17 00:57:43;;;;;;;;;;;21.50;44.20;;;;;;5111217;27;19923;-59
2022/07/17 01:00:11;;;;;;;;;;;21.50;44.10;;;;;;5087703;28;19928;-58
2022/07/17 01:02:39;;;;;;;;;;;21.50;44.10;;;;;;5093737;28;20286;-59
2022/07/17 01:05:06;;;;;;;;;;;21.50;44.10;;;;;;5087161;28;19920;-58
2022/07/17 01:07:33;;;;;;;;;;;21.50;44.10;;;;;;5080060;28;19981;-59
2022/07/17 01:10:00;;;;;;;;;;;21.50;44.10;;;;;;5086466;28;19931;-59
2022/07/17 01:12:26;;;;;;;;;;;21.50;44.10;;;;;;5090860;28;19921;-59
2022/07/17 01:14:53;;;;;;;;;;;21.50;44.10;;;;;;5075191;28;19921;-59
2022/07/17 01:17:20;;;;;;;;;;;21.50;44.10;;;;;;5068232;28;19921;-59
2022/07/17 01:19:48;;;;;;;;;;;21.50;44.10;;;;;;5051471;28;19921;-60
2022/07/17 01:22:16;;;;;;;;;;;21.50;44.10;;;;;;5099375;28;19929;-59
2022/07/17 01:24:43;;;;;;;;;;;21.50;44.10;;;;;;5086458;28;19944;-59
2022/07/17 01:27:09;;;;;;;;;;;21.50;44.10;;;;;;5059120;28;20007;-59
2022/07/17 01:29:36;;;;;;;;;;;21.50;44.10;;;;;;5069214;28;19931;-59
2022/07/17 01:32:03;;;;;;;;;;;21.50;44.10;;;;;;5080586;28;19921;-59
2022/07/17 01:34:30;;;;;;;;;;;21.50;44.10;;;;;;5083206;28;19925;-59
2022/07/17 01:36:56;;;;;;;;;;;21.50;44.10;;;;;;5093055;27;19948;-59
2022/07/17 01:42:05;;;;;;;;;;;21.50;44.10;;;;;;5090080;27;19928;-60
2022/07/17 01:44:32;;;;;;;;;;;21.50;44.10;;;;;;5093984;28;19928;-59
2022/07/17 01:46:58;;;;;;;;;;;21.50;44.10;;;;;;5073774;28;20277;-60
2022/07/17 01:49:25;;;;;;;;;;;21.50;44.10;;;;;;5075236;28;19979;-59
2022/07/17 01:51:52;;;;;;;;;;;21.50;44.10;;;;;;5089731;28;19920;-60
2022/07/17 01:54:19;;;;;;;;;;;21.50;44.10;;;;;;5062682;28;19939;-60
2022/07/17 01:56:47;;;;;;;;;;;21.50;44.10;;;;;;5087789;28;20322;-59
2022/07/17 01:59:13;;;;;;;;;;;21.50;44.00;;;;;;5110400;27;19924;-60
2022/07/17 02:01:40;;;;;;;;;;;21.50;44.10;;;;;;5087295;28;19920;-60
2022/07/17 02:04:07;;;;;;;;;;;21.50;44.10;;;;;;5092119;28;20323;-60
2022/07/17 02:06:34;;;;;;;;;;;21.50;44.10;;;;;;5094242;28;19936;-59
2022/07/17 02:09:00;;;;;;;;;;;21.40;44.00;;;;;;5071782;28;19921;-59
2022/07/17 02:11:27;;;;;;;;;;;21.50;44.00;;;;;;5081355;28;19920;-58
2022/07/17 02:13:55;;;;;;;;;;;21.50;44.00;;;;;;5103859;27;20201;-59
2022/07/17 02:16:22;;;;;;;;;;;21.50;44.00;;;;;;5078695;28;19946;-59
2022/07/17 02:18:48;;;;;;;;;;;21.50;44.10;;;;;;5098554;28;19925;-59
2022/07/17 02:21:15;;;;;;;;;;;21.50;44.10;;;;;;5061592;28;20434;-59
2022/07/17 02:23:42;;;;;;;;;;;21.40;44.00;;;;;;5100695;28;20257;-59
2022/07/17 02:26:09;;;;;;;;;;;21.50;44.10;;;;;;5102334;28;19920;-56
2022/07/17 02:28:36;;;;;;;;;;;21.40;44.00;;;;;;5090480;28;19920;-58
2022/07/17 02:31:04;;;;;;;;;;;21.40;44.00;;;;;;5081230;28;19925;-58
2022/07/17 02:33:31;;;;;;;;;;;21.40;44.00;;;;;;5095397;28;19966;-59
2022/07/17 02:35:58;;;;;;;;;;;21.40;44.00;;;;;;5083559;28;19966;-58
2022/07/17 02:38:24;;;;;;;;;;;21.40;44.10;;;;;;5074585;28;19970;-59
2022/07/17 02:40:51;;;;;;;;;;;21.40;44.00;;;;;;5083905;28;20401;-58
2022/07/17 02:43:18;;;;;;;;;;;21.40;44.10;;;;;;5090356;28;19920;-58
2022/07/17 02:45:45;;;;;;;;;;;21.40;44.00;;;;;;5099700;28;19932;-59
2022/07/17 02:48:13;;;;;;;;;;;21.40;44.10;;;;;;5056241;28;19924;-60
2022/07/17 02:50:39;;;;;;;;;;;21.40;44.10;;;;;;5095810;28;19956;-59
2022/07/17 02:53:06;;;;;;;;;;;21.40;44.10;;;;;;5088854;28;19927;-59
2022/07/17 02:55:33;;;;;;;;;;;21.40;44.10;;;;;;5085112;28;20347;-58
2022/07/17 02:57:59;;;;;;;;;;;21.40;44.10;;;;;;5104396;28;19925;-58
2022/07/17 03:00:27;;;;;;;;;;;21.40;44.10;;;;;;5104131;28;19923;-59
2022/07/17 03:02:55;;;;;;;;;;;21.40;44.10;;;;;;5103682;28;20247;-59
2022/07/17 03:05:23;;;;;;;;;;;21.40;44.10;;;;;;5089890;28;20446;-58
2022/07/17 03:07:49;;;;;;;;;;;21.40;44.10;;;;;;5092094;28;20281;-58
2022/07/17 03:10:16;;;;;;;;;;;21.40;44.10;;;;;;5105195;28;19927;-58
2022/07/17 03:12:43;;;;;;;;;;;21.40;44.10;;;;;;5096355;28;19920;-58
2022/07/17 03:15:10;;;;;;;;;;;21.40;44.10;;;;;;5085229;28;19924;-58
2022/07/17 03:17:38;;;;;;;;;;;21.40;44.10;;;;;;5104669;28;20391;-58
2022/07/17 03:20:05;;;;;;;;;;;21.40;44.10;;;;;;5106383;28;19920;-58
2022/07/17 03:22:33;;;;;;;;;;;21.40;44.10;;;;;;5098952;28;19924;-60
2022/07/17 03:25:00;;;;;;;;;;;21.40;44.10;;;;;;5109361;28;19924;-57
2022/07/17 03:27:27;;;;;;;;;;;21.40;44.10;;;;;;5086555;28;20277;-59
2022/07/17 03:29:54;;;;;;;;;;;21.40;44.10;;;;;;5109064;28;19928;-58
2022/07/17 03:32:21;;;;;;;;;;;21.40;44.10;;;;;;5103404;28;19920;-58
2022/07/17 03:34:47;;;;;;;;;;;21.40;44.10;;;;;;5071564;28;19931;-57
2022/07/17 03:37:14;;;;;;;;;;;21.40;44.10;;;;;;5098195;28;19927;-59
2022/07/17 03:39:42;;;;;;;;;;;21.40;44.20;;;;;;5102594;28;20019;-58
2022/07/17 03:42:09;;;;;;;;;;;21.40;44.20;;;;;;5095845;28;19920;-60
2022/07/17 03:44:35;;;;;;;;;;;21.40;44.20;;;;;;5109382;28;20310;-58
2022/07/17 03:47:02;;;;;;;;;;;21.40;44.20;;;;;;5088887;28;19981;-59
2022/07/17 03:49:29;;;;;;;;;;;21.40;44.20;;;;;;5108757;28;20140;-59
2022/07/17 03:51:56;;;;;;;;;;;21.40;44.20;;;;;;5071550;28;20281;-58
2022/07/17 03:54:22;;;;;;;;;;;21.40;44.20;;;;;;5092842;28;20334;-58
2022/07/17 03:56:50;;;;;;;;;;;21.40;44.20;;;;;;5090422;28;19928;-59
2022/07/17 03:59:17;;;;;;;;;;;21.40;44.20;;;;;;5088483;28;20432;-59
2022/07/17 04:01:44;;;;;;;;;;;21.40;44.20;;;;;;5092324;28;19943;-59
2022/07/17 04:04:11;;;;;;;;;;;21.40;44.20;;;;;;5077085;28;19921;-59
2022/07/17 04:06:37;;;;;;;;;;;21.40;44.20;;;;;;5098536;27;20019;-58
2022/07/17 04:09:04;;;;;;;;;;;21.40;44.20;;;;;;5096931;28;19927;-58
2022/07/17 04:11:31;;;;;;;;;;;21.40;44.20;;;;;;5104592;28;19920;-58
2022/07/17 04:13:59;;;;;;;;;;;21.40;44.20;;;;;;5091507;28;19924;-59
2022/07/17 04:16:26;;;;;;;;;;;21.40;44.20;;;;;;5099318;28;19920;-59
2022/07/17 04:18:53;;;;;;;;;;;21.40;44.20;;;;;;5079950;28;19920;-58
2022/07/17 04:21:20;;;;;;;;;;;21.40;44.20;;;;;;5091783;28;19920;-59
2022/07/17 04:23:46;;;;;;;;;;;21.40;44.20;;;;;;5107504;28;19959;-58
2022/07/17 04:26:13;;;;;;;;;;;21.40;44.20;;;;;;5077422;28;19931;-59
2022/07/17 04:28:40;;;;;;;;;;;21.40;44.20;;;;;;5102687;28;19981;-57
2022/07/17 04:31:08;;;;;;;;;;;21.40;44.30;;;;;;5106463;28;19920;-59
2022/07/17 04:33:35;;;;;;;;;;;21.40;44.20;;;;;;5084442;28;19929;-59
2022/07/17 04:36:02;;;;;;;;;;;21.40;44.20;;;;;;5099047;27;19959;-59
2022/07/17 04:38:29;;;;;;;;;;;21.40;44.30;;;;;;5084675;28;20008;-59
2022/07/17 04:40:55;;;;;;;;;;;21.40;44.20;;;;;;5095422;28;20019;-59
2022/07/17 04:43:22;;;;;;;;;;;21.40;44.30;;;;;;5090698;28;19966;-59
2022/07/17 04:45:49;;;;;;;;;;;21.40;44.30;;;;;;5107717;28;19920;-59
2022/07/17 04:48:17;;;;;;;;;;;21.40;44.30;;;;;;5073463;28;19931;-59
2022/07/17 04:50:44;;;;;;;;;;;21.40;44.30;;;;;;5090037;28;20259;-59
2022/07/17 04:53:10;;;;;;;;;;;21.40;44.30;;;;;;5102575;27;19956;-59
2022/07/17 04:55:38;;;;;;;;;;;21.40;44.30;;;;;;5057202;28;19928;-60
2022/07/17 04:58:05;;;;;;;;;;;21.40;44.30;;;;;;5100158;28;19920;-60
2022/07/17 05:00:31;;;;;;;;;;;21.40;44.30;;;;;;5056519;28;20283;-59
2022/07/17 05:02:58;;;;;;;;;;;21.40;44.30;;;;;;5083247;28;20007;-60
2022/07/17 05:05:26;;;;;;;;;;;21.40;44.30;;;;;;5107506;28;20018;-57
2022/07/17 05:07:53;;;;;;;;;;;21.40;44.30;;;;;;5076988;28;20023;-59
2022/07/17 05:10:20;;;;;;;;;;;21.40;44.40;;;;;;5078533;28;20400;-59
2022/07/17 05:12:46;;;;;;;;;;;21.40;44.40;;;;;;5098139;27;20635;-58
2022/07/17 05:15:13;;;;;;;;;;;21.40;44.40;;;;;;5090650;28;19974;-57
2022/07/17 05:17:40;;;;;;;;;;;21.40;44.40;;;;;;5091426;28;19944;-58
2022/07/17 05:20:08;;;;;;;;;;;21.40;44.40;;;;;;5084579;28;19927;-58
2022/07/17 05:22:36;;;;;;;;;;;21.40;44.40;;;;;;5078796;28;20320;-59
2022/07/17 05:25:06;;;;;;;;;;;21.40;44.40;;;;;;5086889;28;19920;-57
2022/07/17 05:27:35;;;;;;;;;;;21.40;44.40;;;;;;5094919;28;20392;-59
2022/07/17 05:30:02;;;;;;;;;;;21.40;44.50;;;;;;5100735;28;20008;-59
2022/07/17 05:32:29;;;;;;;;;;;21.40;45.00;;;;;;5094053;27;19924;-59
2022/07/17 05:34:56;;;;;;;;;;;21.40;44.80;;;;;;5084499;28;19928;-59
2022/07/17 05:37:23;;;;;;;;;;;21.40;44.40;;;;;;5097474;28;19927;-60
2022/07/17 05:39:51;;;;;;;;;;;21.40;44.40;;;;;;5075765;28;19959;-59
2022/07/17 05:42:17;;;;;;;;;;;21.40;44.40;;;;;;5063521;28;19924;-60
2022/07/17 05:44:44;;;;;;;;;;;21.40;44.50;;;;;;5103929;27;19921;-59
2022/07/17 05:47:11;;;;;;;;;;;21.40;44.50;;;;;;5091207;28;20270;-59
2022/07/17 05:49:37;;;;;;;;;;;21.40;44.50;;;;;;5091317;28;20067;-60
2022/07/17 05:52:04;;;;;;;;;;;21.40;44.50;;;;;;5083000;28;19920;-59
2022/07/17 05:54:32;;;;;;;;;;;21.40;44.50;;;;;;5091682;28;19973;-59
2022/07/17 05:57:00;;;;;;;;;;;21.40;44.50;;;;;;5087116;28;20437;-59
2022/07/17 05:59:27;;;;;;;;;;;21.40;44.50;;;;;;5117835;27;19928;-61
2022/07/17 06:01:53;;;;;;;;;;;21.40;44.50;;;;;;5088094;28;19933;-60
2022/07/17 06:04:20;;;;;;;;;;;21.40;44.50;;;;;;5106329;28;19928;-59
2022/07/17 06:06:47;;;;;;;;;;;21.40;44.60;;;;;;5070257;28;19932;-60
2022/07/17 06:09:14;;;;;;;;;;;21.40;44.60;;;;;;5070197;28;19943;-59
2022/07/17 06:11:40;;;;;;;;;;;21.40;44.60;;;;;;5102644;28;19924;-60
2022/07/17 06:14:08;;;;;;;;;;;21.40;44.60;;;;;;5079589;28;19921;-60
2022/07/17 06:16:35;;;;;;;;;;;21.40;44.60;;;;;;5059147;28;20237;-61
2022/07/17 06:19:02;;;;;;;;;;;21.50;44.60;;;;;;5085609;28;20328;-61
2022/07/17 06:21:28;;;;;;;;;;;21.50;44.70;;;;;;5107957;27;19932;-60
2022/07/17 06:23:55;;;;;;;;;;;21.40;44.60;;;;;;5078105;28;19920;-60
2022/07/17 06:26:22;;;;;;;;;;;21.50;44.70;;;;;;5081910;28;19964;-60
2022/07/17 06:28:49;;;;;;;;;;;21.50;44.70;;;;;;5092896;28;19928;-60
2022/07/17 06:31:17;;;;;;;;;;;21.50;44.70;;;;;;5099646;28;19967;-61
2022/07/17 06:33:43;;;;;;;;;;;21.50;44.70;;;;;;5089746;28;19925;-60
2022/07/17 06:36:10;;;;;;;;;;;21.50;44.70;;;;;;5085902;28;19920;-59
2022/07/17 06:38:37;;;;;;;;;;;21.50;44.70;;;;;;5102467;28;19970;-60
2022/07/17 06:41:04;;;;;;;;;;;21.40;44.60;;;;;;5083876;28;19920;-59
2022/07/17 06:43:30;;;;;;;;;;;21.50;44.70;;;;;;5069885;28;19925;-60
2022/07/17 06:45:57;;;;;;;;;;;21.50;44.80;;;;;;5065192;28;20329;-60
2022/07/17 06:48:25;;;;;;;;;;;21.40;44.70;;;;;;5095142;27;19924;-58
2022/07/17 06:50:52;;;;;;;;;;;21.50;44.80;;;;;;5054501;28;20009;-60
2022/07/17 06:53:19;;;;;;;;;;;21.50;44.70;;;;;;5111411;27;19925;-59
2022/07/17 06:55:46;;;;;;;;;;;21.50;44.80;;;;;;5069766;28;20006;-60
2022/07/17 06:58:12;;;;;;;;;;;21.50;44.80;;;;;;5096971;28;19921;-59
2022/07/17 07:00:39;;;;;;;;;;;21.50;44.80;;;;;;5099691;28;19932;-60
2022/07/17 07:03:06;;;;;;;;;;;21.50;45.10;;;;;;5079155;28;20166;-60
2022/07/17 07:05:34;;;;;;;;;;;21.50;44.80;;;;;;5102438;28;19924;-59
2022/07/17 07:08:01;;;;;;;;;;;21.50;44.90;;;;;;5099865;28;19931;-60
2022/07/17 07:10:28;;;;;;;;;;;21.50;44.90;;;;;;5079488;28;20010;-60
2022/07/17 07:12:55;;;;;;;;;;;21.50;44.90;;;;;;5096888;28;19994;-59
2022/07/17 07:15:23;;;;;;;;;;;21.50;44.90;;;;;;5113036;27;19931;-60
2022/07/17 07:17:50;;;;;;;;;;;21.50;44.90;;;;;;5103474;28;20445;-60
2022/07/17 07:20:17;;;;;;;;;;;21.50;44.90;;;;;;5108831;28;19973;-60
2022/07/17 07:22:45;;;;;;;;;;;21.50;45.00;;;;;;5100425;28;19935;-60
2022/07/17 07:25:11;;;;;;;;;;;21.50;45.00;;;;;;5101081;28;19932;-59
2022/07/17 07:27:38;;;;;;;;;;;21.50;45.00;;;;;;5072941;28;19939;-60
2022/07/17 07:30:09;;;;;;;;;;;21.50;45.00;;;;;;5107381;28;19924;-60
2022/07/17 07:32:36;;;;;;;;;;;21.50;45.00;;;;;;5081983;28;19921;-58
2022/07/17 07:35:03;;;;;;;;;;;21.50;45.00;;;;;;5118520;27;19963;-60
2022/07/17 07:37:29;;;;;;;;;;;21.50;45.00;;;;;;5095188;27;19920;-60
2022/07/17 07:39:57;;;;;;;;;;;21.50;45.10;;;;;;5084482;28;19924;-60
2022/07/17 07:42:24;;;;;;;;;;;21.50;45.10;;;;;;5106982;27;20231;-60
2022/07/17 07:44:51;;;;;;;;;;;21.50;45.10;;;;;;5061209;28;19933;-60
2022/07/17 07:47:18;;;;;;;;;;;21.50;45.10;;;;;;5057134;28;19932;-59
2022/07/17 07:49:45;;;;;;;;;;;21.50;45.10;;;;;;5101462;27;19920;-60
2022/07/17 07:52:12;;;;;;;;;;;21.50;45.10;;;;;;5062596;28;19982;-60
2022/07/17 07:54:39;;;;;;;;;;;21.50;45.10;;;;;;5075767;28;20402;-59
2022/07/17 07:57:07;;;;;;;;;;;21.50;45.20;;;;;;5081174;28;19928;-60
2022/07/17 07:59:34;;;;;;;;;;;21.50;45.20;;;;;;5059540;28;20321;-61
2022/07/17 08:02:01;;;;;;;;;;;21.50;45.80;;;;;;5076756;28;19931;-60
2022/07/17 08:04:27;;;;;;;;;;;21.50;45.30;;;;;;5093800;28;19930;-60
2022/07/17 08:06:54;;;;;;;;;;;21.50;45.30;;;;;;5081332;28;19924;-60
2022/07/17 08:09:21;;;;;;;;;;;21.50;45.30;;;;;;5108053;28;19927;-60
2022/07/17 08:11:48;;;;;;;;;;;21.50;45.40;;;;;;5092355;28;20019;-60
2022/07/17 08:14:16;;;;;;;;;;;21.50;45.40;;;;;;5102370;28;19920;-59
2022/07/17 08:16:43;;;;;;;;;;;21.50;45.50;;;;;;5088699;28;19925;-60
2022/07/17 08:19:09;;;;;;;;;;;21.50;45.50;;;;;;5067795;28;20397;-60
2022/07/17 08:21:36;;;;;;;;;;;21.50;45.50;;;;;;5066604;28;19920;-60
2022/07/17 08:24:03;;;;;;;;;;;21.50;45.50;;;;;;5066830;28;20427;-60
2022/07/17 08:26:30;;;;;;;;;;;21.50;45.50;;;;;;5059082;28;19924;-60
2022/07/17 08:28:56;;;;;;;;;;;21.50;45.50;;;;;;5076038;28;19973;-60
2022/07/17 08:31:25;;;;;;;;;;;21.50;45.60;;;;;;5085339;28;19974;-60
2022/07/17 08:33:51;;;;;;;;;;;21.50;45.60;;;;;;5089083;27;20427;-60
2022/07/17 08:36:18;;;;;;;;;;;21.50;45.60;;;;;;5093609;28;20367;-60
2022/07/17 08:38:45;;;;;;;;;;;21.50;45.60;;;;;;5071363;28;19927;-59
2022/07/17 08:41:15;;;;;;;;;;;21.50;45.70;;;;;;5086384;27;20298;-59
2022/07/17 08:43:42;;;;;;;;;;;21.50;45.70;;;;;;5092695;27;20001;-60
2022/07/17 08:46:10;;;;;;;;;;;21.50;45.70;;;;;;5100290;28;19978;-60
2022/07/17 08:48:38;;;;;;;;;;;21.50;45.70;;;;;;5073270;28;20361;-59
2022/07/17 08:51:05;;;;;;;;;;;21.50;45.80;;;;;;5055040;28;20456;-60
2022/07/17 08:53:31;;;;;;;;;;;21.50;46.40;;;;;;5075356;28;19977;-60
2022/07/17 08:55:58;;;;;;;;;;;21.60;45.80;;;;;;5069856;28;20007;-60
2022/07/17 08:58:25;;;;;;;;;;;21.50;45.80;;;;;;5078372;28;19927;-59
2022/07/17 09:00:52;;;;;;;;;;;21.60;45.80;;;;;;5107244;28;20250;-59
2022/07/17 09:03:19;;;;;;;;;;;21.60;45.90;;;;;;5087139;28;20010;-59
2022/07/17 09:05:48;;;;;;;;;;;21.50;45.80;;;;;;5103960;27;19929;-59
2022/07/17 09:08:19;;;;;;;;;;;21.60;45.90;;;;;;5089453;28;19920;-59
2022/07/17 09:10:46;;;;;;;;;;;21.60;45.80;;;;;;5105768;27;20273;-60
2022/07/17 09:13:19;;;;;;;;;;;21.60;46.40;;;;;;5107004;28;19920;-60
2022/07/17 09:15:46;;;;;;;;;;;21.60;45.80;;;;;;5089105;28;19947;-61
2022/07/17 09:18:13;;;;;;;;;;;21.60;45.80;;;;;;5087361;28;19931;-60
2022/07/17 09:20:44;;;;;;;;;;;21.60;45.80;;;;;;5093674;28;19931;-60
2022/07/17 09:23:12;;;;;;;;;;;21.60;45.80;;;;;;5093489;28;19920;-60
2022/07/17 09:25:41;;;;;;;;;;;21.50;45.70;;;;;;5103987;28;19920;-60
2022/07/17 09:28:09;;;;;;;;;;;21.60;45.80;;;;;;5091865;28;20007;-59
2022/07/17 09:30:36;;;;;;;;;;;21.60;45.80;;;;;;5071087;28;20011;-61
2022/07/17 09:33:03;;;;;;;;;;;21.60;45.80;;;;;;5049778;28;19944;-61
2022/07/17 09:35:30;;;;;;;;;;;21.60;46.40;;;;;;5073409;28;19965;-60
2022/07/17 09:37:58;;;;;;;;;;;21.60;45.70;;;;;;5091298;28;20377;-60
2022/07/17 09:43:11;;;;;;;;;;;21.60;45.70;;;;;;5092763;27;19947;-59
2022/07/17 09:45:38;;;;;;;;;;;21.60;45.70;;;;;;5078055;28;19920;-59
2022/07/17 09:48:05;;;;;;;;;;;21.60;45.70;;;;;;5106298;28;20313;-59
2022/07/17 09:50:32;;;;;;;;;;;21.60;45.60;;;;;;5076306;28;19920;-59
2022/07/17 09:52:59;;;;;;;;;;;21.60;45.60;;;;;;5087691;28;19920;-57
2022/07/17 09:55:30;;;;;;;;;;;21.60;45.60;;;;;;5089466;28;19928;-60
2022/07/17 09:57:57;;;;;;;;;;;21.60;45.50;;;;;;5106023;28;20344;-59
2022/07/17 10:00:24;;;;;;;;;;;21.60;45.50;;;;;;5100617;28;19920;-60
2022/07/17 10:02:51;;;;;;;;;;;21.60;45.50;;;;;;5083971;28;19985;-59
2022/07/17 10:05:18;;;;;;;;;;;21.60;45.50;;;;;;5087377;28;19970;-59
2022/07/17 10:07:45;;;;;;;;;;;21.60;45.50;;;;;;5090445;28;19980;-59
2022/07/17 10:10:12;;;;;;;;;;;21.60;45.60;;;;;;5076909;28;19970;-59
2022/07/17 10:12:40;;;;;;;;;;;21.60;45.60;;;;;;5104420;27;19930;-59
2022/07/17 10:15:07;;;;;;;;;;;21.60;45.60;;;;;;5102653;28;19927;-59
2022/07/17 10:17:34;;;;;;;;;;;21.60;45.60;;;;;;5097775;28;19924;-61
2022/07/17 10:20:02;;;;;;;;;;;21.60;45.60;;;;;;5088359;28;19920;-60
2022/07/17 10:22:29;;;;;;;;;;;21.60;45.60;;;;;;5106059;28;20020;-59
2022/07/17 10:24:56;;;;;;;;;;;21.60;45.60;;;;;;5075129;28;19920;-59
2022/07/17 10:27:23;;;;;;;;;;;21.60;45.60;;;;;;5106729;28;19970;-59
2022/07/17 10:30:02;;;;;;;;;;;21.70;45.70;;;;;;5094139;28;19927;-60
2022/07/17 10:32:28;;;;;;;;;;;21.70;45.60;;;;;;5105681;28;20313;-60
2022/07/17 10:34:59;;;;;;;;;;;21.70;45.60;;;;;;5071391;28;20495;-60
2022/07/17 10:37:26;;;;;;;;;;;21.70;45.60;;;;;;5060353;28;19921;-61
2022/07/17 10:40:04;;;;;;;;;;;21.70;45.60;;;;;;5099569;28;20312;-61
2022/07/17 10:42:47;;;;;;;;;;;21.70;45.70;;;;;;5101639;28;19974;-61
2022/07/17 10:45:15;;;;;;;;;;;21.60;45.70;;;;;;5083413;28;20366;-61
2022/07/17 10:47:45;;;;;;;;;;;21.70;45.70;;;;;;5086632;28;20342;-61
2022/07/17 10:50:12;;;;;;;;;;;21.70;45.70;;;;;;5087610;28;20027;-59
2022/07/17 10:52:39;;;;;;;;;;;21.70;45.70;;;;;;5079012;28;19965;-60
2022/07/17 10:55:06;;;;;;;;;;;21.70;45.60;;;;;;5109350;28;19985;-59
2022/07/17 10:57:33;;;;;;;;;;;21.70;45.60;;;;;;5080654;28;19920;-61
2022/07/17 11:00:00;;;;;;;;;;;21.70;45.60;;;;;;5073201;28;19982;-61
2022/07/17 11:02:31;;;;;;;;;;;21.70;45.70;;;;;;5090199;28;20421;-59
2022/07/17 11:05:13;;;;;;;;;;;21.70;45.70;;;;;;5082017;28;20231;-59
2022/07/17 11:07:52;;;;;;;;;;;21.70;45.70;;;;;;5077180;28;19932;-59
2022/07/17 11:10:19;;;;;;;;;;;21.70;45.70;;;;;;5074547;28;19964;-59
2022/07/17 11:12:46;;;;;;;;;;;21.70;45.70;;;;;;5103040;28;20293;-60
2022/07/17 11:15:13;;;;;;;;;;;21.70;45.60;;;;;;5078994;28;19927;-61
2022/07/17 11:17:45;;;;;;;;;;;21.70;45.50;;;;;;5086077;28;19927;-60
2022/07/17 11:20:12;;;;;;;;;;;21.70;45.40;;;;;;5073598;28;19925;-60
2022/07/17 11:22:39;;;;;;;;;;;21.70;45.40;;;;;;5105441;28;19989;-60
2022/07/17 11:25:06;;;;;;;;;;;21.70;45.40;;;;;;5062804;28;19925;-60
2022/07/17 11:27:33;;;;;;;;;;;21.60;45.40;;;;;;5070335;28;19924;-60
2022/07/17 11:30:00;;;;;;;;;;;21.70;45.40;;;;;;5091336;28;19985;-60
2022/07/17 11:32:32;;;;;;;;;;;21.70;45.40;;;;;;5098718;28;19956;-60
2022/07/17 11:35:00;;;;;;;;;;;21.70;45.40;;;;;;5076874;28;19921;-60
2022/07/17 11:37:29;;;;;;;;;;;21.70;45.40;;;;;;5085485;28;20171;-59
2022/07/17 11:39:56;;;;;;;;;;;21.70;45.30;;;;;;5087014;28;19974;-60
2022/07/17 11:42:23;;;;;;;;;;;21.70;45.30;;;;;;5104970;27;19939;-60
2022/07/17 11:44:50;;;;;;;;;;;21.70;45.30;;;;;;5075228;28;19920;-59
2022/07/17 11:47:20;;;;;;;;;;;21.70;45.20;;;;;;5097641;28;20371;-60
2022/07/17 11:49:47;;;;;;;;;;;21.70;45.20;;;;;;5090874;28;19924;-60
2022/07/17 11:52:15;;;;;;;;;;;21.70;45.20;;;;;;5080170;28;19946;-60
2022/07/17 11:54:45;;;;;;;;;;;21.70;45.20;;;;;;5090124;28;19986;-61
2022/07/17 11:57:12;;;;;;;;;;;21.70;45.80;;;;;;5088573;28;20419;-61
2022/07/17 11:59:38;;;;;;;;;;;21.70;45.40;;;;;;5067994;28;19970;-61
2022/07/17 12:02:08;;;;;;;;;;;21.70;45.40;;;;;;5072666;28;19928;-59
2022/07/17 12:04:35;;;;;;;;;;;21.70;45.50;;;;;;5094392;28;19920;-61
2022/07/17 12:07:02;;;;;;;;;;;21.70;45.50;;;;;;5090235;28;20370;-60
2022/07/17 12:09:33;;;;;;;;;;;21.70;45.50;;;;;;5087786;28;20007;-61
2022/07/17 12:12:00;;;;;;;;;;;21.70;45.60;;;;;;5079733;28;20233;-60
2022/07/17 12:14:26;;;;;;;;;;;21.70;45.50;;;;;;5079529;28;19959;-60
2022/07/17 12:16:53;;;;;;;;;;;21.70;45.60;;;;;;5080397;28;19991;-59
2022/07/17 12:19:20;;;;;;;;;;;21.70;45.50;;;;;;5088091;28;19920;-60
2022/07/17 12:21:48;;;;;;;;;;;21.70;45.50;;;;;;5080046;28;19921;-61
2022/07/17 12:24:19;;;;;;;;;;;21.80;45.60;;;;;;5073988;28;19920;-61
2022/07/17 12:26:47;;;;;;;;;;;21.70;45.50;;;;;;5070506;28;20358;-61
2022/07/17 12:29:13;;;;;;;;;;;21.80;45.60;;;;;;5099726;28;19940;-60
2022/07/17 12:31:41;;;;;;;;;;;21.80;45.50;;;;;;5094465;28;19931;-60
2022/07/17 12:34:07;;;;;;;;;;;21.80;45.50;;;;;;5086870;28;19940;-61
2022/07/17 12:36:34;;;;;;;;;;;21.80;45.50;;;;;;5095350;28;19924;-60
2022/07/17 12:39:01;;;;;;;;;;;21.80;45.50;;;;;;5073399;28;19924;-66
2022/07/17 12:41:28;;;;;;;;;;;21.80;45.60;;;;;;5091575;28;20278;-59
2022/07/17 12:43:56;;;;;;;;;;;21.80;45.50;;;;;;5097622;28;19924;-59
2022/07/17 12:46:23;;;;;;;;;;;21.80;45.50;;;;;;5095989;28;19924;-59
2022/07/17 12:48:50;;;;;;;;;;;21.80;45.50;;;;;;5107884;28;19924;-60
2022/07/17 12:51:17;;;;;;;;;;;21.80;45.50;;;;;;5078961;28;20274;-57
2022/07/17 12:53:44;;;;;;;;;;;21.80;45.50;;;;;;5121548;27;19973;-58
2022/07/17 12:56:10;;;;;;;;;;;21.80;45.50;;;;;;5088174;28;19951;-57
2022/07/17 12:58:37;;;;;;;;;;;21.80;45.50;;;;;;5107574;28;20026;-59
2022/07/17 13:01:05;;;;;;;;;;;21.90;45.60;;;;;;5093874;28;19979;-58
2022/07/17 13:03:33;;;;;;;;;;;21.80;45.50;;;;;;5107756;28;20296;-58
2022/07/17 13:06:00;;;;;;;;;;;21.90;45.60;;;;;;5085500;28;19924;-58
2022/07/17 13:08:27;;;;;;;;;;;21.90;45.60;;;;;;5084421;28;20031;-60
2022/07/17 13:10:54;;;;;;;;;;;21.90;45.60;;;;;;5106969;27;19921;-59
2022/07/17 13:13:20;;;;;;;;;;;21.90;45.60;;;;;;5079980;28;20014;-58
2022/07/17 13:15:47;;;;;;;;;;;21.90;45.60;;;;;;5099960;28;19999;-59
2022/07/17 13:18:15;;;;;;;;;;;21.90;45.60;;;;;;5111430;27;19920;-59
2022/07/17 13:20:42;;;;;;;;;;;21.90;45.60;;;;;;5085604;28;19969;-60
2022/07/17 13:23:09;;;;;;;;;;;21.90;45.60;;;;;;5068716;28;19928;-60
2022/07/17 13:25:35;;;;;;;;;;;21.90;45.60;;;;;;5067976;28;19925;-60
2022/07/17 13:28:02;;;;;;;;;;;21.90;45.60;;;;;;5067232;28;20400;-59
2022/07/17 13:30:29;;;;;;;;;;;21.90;46.20;;;;;;5092976;27;19974;-59
2022/07/17 13:32:56;;;;;;;;;;;21.90;45.60;;;;;;5080831;28;19931;-59
2022/07/17 13:35:24;;;;;;;;;;;21.90;45.60;;;;;;5090027;28;19928;-59
2022/07/17 13:37:50;;;;;;;;;;;21.90;45.60;;;;;;5094144;28;19928;-59
2022/07/17 13:40:18;;;;;;;;;;;21.90;45.60;;;;;;5091351;28;20363;-59
2022/07/17 13:42:45;;;;;;;;;;;21.90;45.60;;;;;;5102053;27;19956;-60
2022/07/17 13:45:12;;;;;;;;;;;21.90;45.60;;;;;;5087331;28;19920;-60
2022/07/17 13:47:39;;;;;;;;;;;21.90;45.60;;;;;;5092115;28;19920;-59
2022/07/17 13:50:06;;;;;;;;;;;21.90;45.60;;;;;;5101316;27;19920;-60
2022/07/17 13:52:34;;;;;;;;;;;21.90;45.60;;;;;;5070554;28;19927;-60
2022/07/17 13:55:01;;;;;;;;;;;21.90;45.60;;;;;;5103974;28;19927;-59
2022/07/17 13:57:28;;;;;;;;;;;22.00;45.70;;;;;;5067728;28;19993;-60
2022/07/17 13:59:55;;;;;;;;;;;21.90;45.70;;;;;;5094570;28;19949;-60
2022/07/17 14:02:21;;;;;;;;;;;22.00;45.70;;;;;;5086164;28;20373;-60
2022/07/17 14:04:48;;;;;;;;;;;21.90;45.60;;;;;;5086077;28;19932;-60
2022/07/17 14:07:18;;;;;;;;;;;22.00;45.70;;;;;;5085867;28;19921;-60
2022/07/17 14:09:46;;;;;;;;;;;21.90;45.60;;;;;;5083651;28;19969;-60
2022/07/17 14:12:13;;;;;;;;;;;22.00;45.70;;;;;;5111622;27;19990;-59
2022/07/17 14:14:39;;;;;;;;;;;22.00;45.80;;;;;;5103832;27;19921;-61
2022/07/17 14:17:07;;;;;;;;;;;22.00;45.70;;;;;;5102544;27;19981;-61
2022/07/17 14:19:34;;;;;;;;;;;22.00;45.70;;;;;;5068316;28;19927;-59
2022/07/17 14:22:00;;;;;;;;;;;22.00;45.70;;;;;;5073489;28;19921;-60